createdAt,value
2023-04-27T00:01:59.015Z,100423.16
2023-04-27T00:07:00.926Z,100422.28
2023-04-27T00:12:02.691Z,100414.34
2023-04-27T00:17:04.296Z,100414.94
2023-04-27T00:22:06.296Z,100407.31
2023-04-27T00:27:07.889Z,100400.28
2023-04-27T00:32:12.691Z,100397.56
2023-04-27T00:37:14.244Z,100391.56
2023-04-27T00:42:19.500Z,100394.19
2023-04-27T00:47:21.771Z,100400.25
2023-04-27T00:52:23.500Z,100402.97
2023-04-27T00:57:25.273Z,100402.78
2023-04-27T01:02:27.905Z,100409.50
2023-04-27T01:07:29.678Z,100413.66
2023-04-27T01:12:33.287Z,100415.75
2023-04-27T01:17:35.054Z,100399.75
2023-04-27T01:22:37.354Z,100413.00
2023-04-27T01:27:38.939Z,100410.88
2023-04-27T01:32:40.700Z,100416.34
2023-04-27T01:37:42.469Z,100416.16
2023-04-27T01:42:44.948Z,100415.97
2023-04-27T01:47:46.581Z,100416.69
2023-04-27T01:52:48.220Z,100424.94
2023-04-27T01:57:49.851Z,100424.78
2023-04-27T02:02:53.639Z,100429.25
2023-04-27T02:07:55.692Z,100431.16
2023-04-27T02:12:57.280Z,100424.03
2023-04-27T02:17:58.850Z,100436.41
2023-04-27T02:23:01.141Z,100427.19
2023-04-27T02:28:02.875Z,100430.38
2023-04-27T02:33:05.194Z,100444.66
2023-04-27T02:38:06.854Z,100437.28
2023-04-27T02:43:12.684Z,100440.63
2023-04-27T02:48:14.469Z,100442.09
2023-04-27T02:53:16.217Z,100437.09
2023-04-27T02:58:17.886Z,100439.81
2023-04-27T03:03:19.586Z,100450.50
2023-04-27T03:08:21.224Z,100443.38
2023-04-27T03:13:22.886Z,100449.88
2023-04-27T03:18:24.422Z,100443.63
2023-04-27T03:23:25.945Z,100444.44
2023-04-27T03:28:27.843Z,100448.88
2023-04-27T03:33:30.303Z,100457.22
2023-04-27T03:38:32.107Z,100465.31
2023-04-27T03:43:33.744Z,100463.31
2023-04-27T03:48:37.510Z,100457.81
2023-04-27T03:53:39.259Z,100454.25
2023-04-27T03:58:42.452Z,100462.59
2023-04-27T04:03:52.873Z,100460.19
2023-04-27T04:08:55.495Z,100473.50
2023-04-27T04:13:57.416Z,100473.84
2023-04-27T04:18:59.053Z,100472.56
2023-04-27T04:24:01.096Z,100472.63
2023-04-27T04:29:03.736Z,100470.56
2023-04-27T04:34:05.426Z,100466.78
2023-04-27T04:39:09.406Z,100465.50
2023-04-27T04:44:11.234Z,100470.59
2023-04-27T04:49:13.169Z,100467.56
2023-04-27T04:54:15.291Z,100471.81
2023-04-27T04:59:17.063Z,100473.66
2023-04-27T05:04:19.182Z,100471.94
2023-04-27T05:09:20.830Z,100483.72
2023-04-27T05:14:22.411Z,100491.06
2023-04-27T05:19:25.271Z,100489.53
2023-04-27T05:24:26.999Z,100490.47
2023-04-27T05:29:28.586Z,100500.63
2023-04-27T05:34:30.171Z,100509.81
2023-04-27T05:39:31.842Z,100514.47
2023-04-27T05:44:33.371Z,100515.56
2023-04-27T05:49:34.941Z,100523.16
2023-04-27T05:54:36.612Z,100531.13
2023-04-27T05:59:38.507Z,100535.56
2023-04-27T06:04:40.134Z,100530.63
2023-04-27T06:09:43.102Z,100537.91
2023-04-27T06:14:44.681Z,100538.06
2023-04-27T06:19:46.471Z,100543.38
2023-04-27T06:24:48.041Z,100550.31
2023-04-27T06:29:49.589Z,100538.25
2023-04-27T06:34:51.515Z,100538.31
2023-04-27T06:39:53.313Z,100544.91
2023-04-27T06:44:56.582Z,100541.13
2023-04-27T06:49:58.310Z,100535.88
2023-04-27T06:55:11.237Z,100537.69
2023-04-27T07:00:13.683Z,100545.72
2023-04-27T07:05:15.461Z,100552.34
2023-04-27T07:10:17.082Z,100542.72
2023-04-27T07:15:18.692Z,100545.75
2023-04-27T07:20:24.049Z,100532.75
2023-04-27T07:25:26.000Z,100539.53
2023-04-27T07:30:30.737Z,100528.91
2023-04-27T07:35:32.458Z,100526.38
2023-04-27T07:40:34.546Z,100522.94
2023-04-27T07:45:39.196Z,100510.63
2023-04-27T07:50:40.912Z,100496.75
2023-04-27T07:55:44.508Z,100509.78
2023-04-27T08:00:46.585Z,100496.03
2023-04-27T08:05:48.526Z,100505.00
2023-04-27T08:10:50.772Z,100495.81
2023-04-27T08:15:58.343Z,100491.22
2023-04-27T08:21:00.308Z,100495.66
2023-04-27T08:26:01.915Z,100483.50
2023-04-27T08:31:03.473Z,100480.06
2023-04-27T08:36:05.416Z,100476.59
2023-04-27T08:41:20.319Z,100468.16
2023-04-27T08:46:27.252Z,100473.88
2023-04-27T08:51:29.052Z,100470.91
2023-04-27T08:56:30.968Z,100451.47
2023-04-27T09:01:35.399Z,100451.81
2023-04-27T09:06:37.050Z,100472.22
2023-04-27T09:11:39.690Z,100466.63
2023-04-27T09:16:41.641Z,100453.09
2023-04-27T09:21:43.581Z,100449.75
2023-04-27T09:26:49.894Z,100450.75
2023-04-27T09:31:51.553Z,100445.63
2023-04-27T09:36:53.452Z,100437.31
2023-04-27T09:42:00.291Z,100441.91
2023-04-27T09:47:02.597Z,100439.72
2023-04-27T09:52:04.352Z,100449.94
2023-04-27T09:57:26.234Z,100446.97
2023-04-27T10:02:31.515Z,100452.03
2023-04-27T10:07:35.450Z,100448.22
2023-04-27T10:12:37.128Z,100437.81
2023-04-27T10:17:38.825Z,100435.09
2023-04-27T10:22:48.088Z,100437.41
2023-04-27T10:27:57.774Z,100438.47
2023-04-27T10:33:05.314Z,100433.28
2023-04-27T10:38:16.640Z,100438.56
2023-04-27T10:43:18.278Z,100437.91
2023-04-27T10:48:19.929Z,100404.75
2023-04-27T10:53:21.574Z,100407.19
2023-04-27T10:58:23.782Z,100407.19
2023-04-27T11:03:25.931Z,100403.31
2023-04-27T11:08:27.575Z,100415.22
2023-04-27T11:13:29.217Z,100401.94
2023-04-27T11:18:31.941Z,100409.47
2023-04-27T11:23:38.139Z,100396.44
2023-04-27T11:28:39.763Z,100387.28
2023-04-27T11:33:48.475Z,100388.72
2023-04-27T11:38:50.247Z,100377.09
2023-04-27T11:43:52.153Z,100366.94
2023-04-27T11:49:00.980Z,100364.44
2023-04-27T11:54:06.826Z,100367.16
2023-04-27T11:59:27.636Z,100361.75
2023-04-27T12:04:29.471Z,100359.81
2023-04-27T12:09:31.149Z,100357.25
2023-04-27T12:14:32.722Z,100346.25
2023-04-27T12:19:34.287Z,100343.16
2023-04-27T12:24:37.088Z,100345.09
2023-04-27T12:29:39.137Z,100342.09
2023-04-27T12:34:42.838Z,100330.16
2023-04-27T12:39:44.869Z,100324.00
2023-04-27T12:44:46.570Z,100332.16
2023-04-27T12:49:48.141Z,100340.91
2023-04-27T12:54:51.240Z,100330.44
2023-04-27T12:59:52.865Z,100337.78
2023-04-27T13:04:55.464Z,100329.53
2023-04-27T13:09:57.197Z,100330.63
2023-04-27T13:14:58.742Z,100326.25
2023-04-27T13:20:00.636Z,100313.88
2023-04-27T13:25:02.283Z,100310.00
2023-04-27T13:30:05.403Z,100322.31
2023-04-27T13:35:07.802Z,100324.88
2023-04-27T13:40:12.989Z,100331.13
2023-04-27T13:45:14.943Z,100311.22
2023-04-27T13:50:17.840Z,100319.25
2023-04-27T13:55:19.483Z,100324.09
2023-04-27T14:00:21.601Z,100332.09
2023-04-27T14:05:23.171Z,100322.22
2023-04-27T14:10:24.732Z,100320.78
2023-04-27T14:15:26.309Z,100312.25
2023-04-27T14:20:28.081Z,100317.78
2023-04-27T14:25:32.821Z,100314.22
2023-04-27T14:30:35.432Z,100309.91
2023-04-27T14:35:37.247Z,100307.75
2023-04-27T14:40:38.876Z,100302.41
2023-04-27T14:45:50.831Z,100301.16
2023-04-27T14:50:55.671Z,100299.78
2023-04-27T14:55:57.359Z,100296.28
2023-04-27T15:01:01.146Z,100307.84
2023-04-27T15:06:03.262Z,100301.84
2023-04-27T15:11:05.140Z,100295.97
2023-04-27T15:16:07.355Z,100290.94
2023-04-27T15:21:09.066Z,100280.63
2023-04-27T15:26:10.699Z,100274.84
2023-04-27T15:31:12.452Z,100268.06
2023-04-27T15:36:14.001Z,100263.44
2023-04-27T15:41:15.748Z,100260.44
2023-04-27T15:46:18.221Z,100253.28
2023-04-27T15:51:19.951Z,100254.47
2023-04-27T15:56:22.057Z,100244.38
2023-04-27T16:01:23.664Z,100228.91
2023-04-27T16:06:35.163Z,100234.09
2023-04-27T16:11:37.013Z,100226.34
2023-04-27T16:16:39.026Z,100225.88
2023-04-27T16:21:40.751Z,100228.25
2023-04-27T16:26:42.295Z,100212.88
2023-04-27T16:31:44.795Z,100204.84
2023-04-27T16:36:48.444Z,100209.94
2023-04-27T16:41:50.044Z,100198.09
2023-04-27T16:46:52.031Z,100195.03
2023-04-27T16:51:54.429Z,100198.09
2023-04-27T16:56:56.088Z,100213.34
2023-04-27T17:02:03.756Z,100212.78
2023-04-27T17:07:11.323Z,100211.94
2023-04-27T17:12:14.661Z,100207.25
2023-04-27T17:17:16.483Z,100203.63
2023-04-27T17:22:18.245Z,100202.50
2023-04-27T17:27:19.794Z,100208.88
2023-04-27T17:32:21.758Z,100204.13
2023-04-27T17:37:23.479Z,100217.09
2023-04-27T17:42:25.054Z,100227.88
2023-04-27T17:47:26.814Z,100228.09
2023-04-27T17:52:28.362Z,100235.50
2023-04-27T17:57:29.900Z,100247.31
2023-04-27T18:02:31.558Z,100252.69
2023-04-27T18:07:36.983Z,100236.53
2023-04-27T18:12:38.766Z,100225.28
2023-04-27T18:17:40.337Z,100218.44
2023-04-27T18:22:41.998Z,100228.50
2023-04-27T18:27:45.184Z,100228.38
2023-04-27T18:32:46.762Z,100234.91
2023-04-27T18:37:53.621Z,100242.91
2023-04-27T18:42:55.168Z,100232.78
2023-04-27T18:47:56.828Z,100234.56
2023-04-27T18:52:58.992Z,100238.06
2023-04-27T18:58:00.560Z,100243.81
2023-04-27T19:03:02.439Z,100233.63
2023-04-27T19:08:04.105Z,100240.06
2023-04-27T19:13:05.653Z,100242.00
2023-04-27T19:18:10.818Z,100234.34
2023-04-27T19:23:13.608Z,100222.41
2023-04-27T19:28:19.176Z,100225.84
2023-04-27T19:33:21.637Z,100221.81
2023-04-27T19:38:25.170Z,100225.09
2023-04-27T19:43:26.742Z,100225.47
2023-04-27T19:48:28.262Z,100223.22
2023-04-27T19:53:35.926Z,100222.09
2023-04-27T19:58:37.470Z,100220.44
2023-04-27T20:03:40.141Z,100220.09
2023-04-27T20:08:42.114Z,100219.47
2023-04-27T20:13:43.688Z,100224.25
2023-04-27T20:18:45.319Z,100220.03
2023-04-27T20:23:50.298Z,100210.59
2023-04-27T20:28:52.167Z,100204.03
2023-04-27T20:33:53.863Z,100202.84
2023-04-27T20:38:57.557Z,100189.56
2023-04-27T20:44:00.347Z,100181.91
2023-04-27T20:49:02.561Z,100173.88
2023-04-27T20:54:04.383Z,100176.38
2023-04-27T20:59:07.306Z,100179.22
2023-04-27T21:04:09.675Z,100163.00
2023-04-27T21:09:11.254Z,100162.09
2023-04-27T21:14:12.849Z,100155.84
2023-04-27T21:19:16.315Z,100157.88
2023-04-27T21:24:19.214Z,100144.88
2023-04-27T21:29:21.174Z,100143.28
2023-04-27T21:34:22.701Z,100136.53
2023-04-27T21:39:24.368Z,100140.81
2023-04-27T21:44:26.067Z,100129.16
2023-04-27T21:49:27.727Z,100135.56
2023-04-27T21:54:31.417Z,100131.03
2023-04-27T21:59:33.036Z,100133.97
2023-04-27T22:04:39.165Z,100119.22
2023-04-27T22:09:41.520Z,100122.88
2023-04-27T22:14:43.113Z,100121.03
2023-04-27T22:19:44.767Z,100123.63
2023-04-27T22:24:47.930Z,100115.22
2023-04-27T22:29:49.591Z,100110.63
2023-04-27T22:34:51.454Z,100105.97
2023-04-27T22:39:53.128Z,100124.81
2023-04-27T22:44:54.677Z,100119.19
2023-04-27T22:49:56.233Z,100103.53
2023-04-27T22:54:57.772Z,100086.63
2023-04-27T22:59:59.357Z,100080.97
2023-04-27T23:05:00.967Z,100073.72
2023-04-27T23:10:03.131Z,100078.06
2023-04-27T23:15:05.264Z,100081.38
2023-04-27T23:20:17.273Z,100066.31
2023-04-27T23:25:28.594Z,100072.38
2023-04-27T23:30:30.908Z,100065.41
2023-04-27T23:35:32.480Z,100050.75
2023-04-27T23:40:34.160Z,100048.84
2023-04-27T23:45:35.704Z,100042.59
2023-04-27T23:50:37.193Z,100041.69
2023-04-27T23:55:38.885Z,100042.28
